ASN logo
Accident
Last updated: 21 November 2017
Statuts:Enquête Préliminaire
Date:jeudi 3 août 2017
Heure:11:00
Type/Sous-type:Silhouette image of generic AT75 model; specific model in this crash may look slightly different
ATR 72-500 (72-212A)
Compagnie:Wings Air
Immatriculation: PK-WFF
Numéro de série: 869
Année de Fabrication: 2009-07-16 (8 years )
Heures de vol:14321
Cycles:16132
Moteurs: 2 Pratt & Whitney Canada PW127M
Equipage:victimes: 0 / à bord: 5
Passagers:victimes: 0 / à bord: 67
Total:victimes: 0 / à bord: 72
Dégats de l'appareil: Substantiels
Lieu de l'accident:Medan-Kualanamu International Airport (KNO) (   Indonésie)
Phase de vol: Inconnu (UNK)
Nature:Transport de Passagers Nat.
Aéroport de départ:Medan-Kualanamu International Airport (KNO/WIMM), Indonésie
Aéroport de destination:Meulaboh-Cut Nyak Dhien Airport (MEQ/WITC), Indonésie
Numéro de vol:IW1252
Détails:
An ATR 72-500 operated by Wings Air as flight IW1252 (PK-WFF) and a Boeing 737-900 operated by Lion Air as flight JT197 (PK-LJZ) both sustained substantial damage in a ground collision accident at Medan-Kualanamu International Airport, Indonesia.
The Boeing 737 landed on runway 23 at 04:00 UTC. At the same time, the ATR-72 was lining up runway 23 from taxiway D.
The outer leading edge of the left hand wing of the Boeing 737 impacted the right hand wing of the ATR-72, causing the outer portion of the wing, almost up to the first flap fairing, to be entirely sheared off.

Accident investigation:
cover
Investigating agency: NTSC Indonesia
Status: Investigation ongoing
Duration: 33 days (1 months)
Accident number: KNKT.17.08.25.04
Download report: Preliminary report

Sources:
» Kumparan.com

METAR Weather report:
03:30 UTC / 10:30 local time:
WIMM 030330Z 08005KT 030V120 9000 BKN018 30/26 Q1010

04:00 UTC / 11:00 local time:
WIMM 030400Z 11007KT 040V140 9999 BKN018 30/25 Q1010

04:30 UTC / 11:30 local time:
WIMM 030430Z 06007KT 040V100 9999 BKN018 31/26 Q1009


Photos

photo of ATR 72-500 (72-212A) PK-WFF
photo of ATR 72-500 (72-212A) PK-WFF
photo of ATR 72-500 (72-212A) PK-WFF
photo of ATR 72-500 (72-212A) PK-WFF
photo of ATR 72-500 (72-212A) PK-WFF
Add your photo of this accident or aircraft
 

Video, social media

Plan
Ce plan montre l'aéroport de départ ainsi que la supposée destination du vol. La ligne fixe reliant les deux aéroports n'est pas le plan de vol exact.
La distance entre Medan-Kualanamu International Airport et Meulaboh-Cut Nyak Dhien Airport est de 302 km (189 miles).

Les informations ci-dessus ne représentent pas l'opinion de la 'Flight Safety Foundation' ou de 'Aviation Safety Network' sur les causes de l'accident. Ces informations prélimimaires sont basées sur les faits tel qu'ils sont connus à ce jour.
languages: languages

Share